createdAt,value
2022-09-03T00:00:41.641Z,99329.34
2022-09-03T00:03:21.375Z,99340.16
2022-09-03T00:05:57.849Z,99337.47
2022-09-03T00:08:34.747Z,99336.63
2022-09-03T00:13:39.770Z,99337.44
2022-09-03T00:16:16.153Z,99344.13
2022-09-03T00:18:49.791Z,99349.16
2022-09-03T00:21:33.060Z,99346.84
2022-09-03T00:24:07.051Z,99347.88
2022-09-03T00:26:48.997Z,99337.66
2022-09-03T00:29:24.306Z,99342.03
2022-09-03T00:32:01.098Z,99342.00
2022-09-03T00:34:35.322Z,99339.28
2022-09-03T00:37:05.575Z,99344.06
2022-09-03T00:39:37.983Z,99338.44
2022-09-03T00:42:33.685Z,99337.38
2022-09-03T00:45:17.315Z,99345.75
2022-09-03T00:48:01.067Z,99341.38
2022-09-03T00:50:42.608Z,99341.97
2022-09-03T00:53:18.587Z,99329.66
2022-09-03T00:55:58.556Z,99333.81
2022-09-03T00:58:55.660Z,99342.63
2022-09-03T01:01:31.597Z,99329.91
2022-09-03T01:04:14.371Z,99341.84
2022-09-03T01:06:54.116Z,99331.41
2022-09-03T01:09:40.082Z,99337.25
2022-09-03T01:12:17.427Z,99333.06
2022-09-03T01:14:59.396Z,99333.03
2022-09-03T01:17:38.399Z,99329.28
2022-09-03T01:20:42.395Z,99326.97
2022-09-03T01:23:54.787Z,99331.13
2022-09-03T01:26:45.402Z,99332.38
2022-09-03T01:29:26.732Z,99333.03
2022-09-03T01:32:08.221Z,99334.69
2022-09-03T01:34:50.824Z,99339.03
2022-09-03T01:37:29.647Z,99336.34
2022-09-03T01:40:09.525Z,99338.63
2022-09-03T01:42:50.000Z,99343.41
2022-09-03T01:45:32.831Z,99340.91
2022-09-03T01:48:16.753Z,99348.84
2022-09-03T01:50:57.827Z,99350.94
2022-09-03T01:53:42.523Z,99350.94
2022-09-03T01:56:23.948Z,99350.09
2022-09-03T01:59:02.528Z,99346.53
2022-09-03T02:01:38.480Z,99335.03
2022-09-03T02:04:18.183Z,99341.75
2022-09-03T02:06:49.813Z,99339.69
2022-09-03T02:09:20.612Z,99337.59
2022-09-03T02:11:55.801Z,99345.50
2022-09-03T02:14:27.861Z,99350.56
2022-09-03T02:17:01.858Z,99355.31
2022-09-03T02:19:32.519Z,99354.09
2022-09-03T02:22:02.456Z,99352.22
2022-09-03T02:24:32.655Z,99350.56
2022-09-03T02:27:02.673Z,99350.13
2022-09-03T02:29:33.866Z,99361.41
2022-09-03T02:32:05.284Z,99351.78
2022-09-03T02:34:35.367Z,99350.97
2022-09-03T02:37:14.107Z,99355.31
2022-09-03T02:39:43.962Z,99351.59
2022-09-03T02:42:15.744Z,99357.63
2022-09-03T02:44:49.831Z,99361.19
2022-09-03T02:47:21.479Z,99354.69
2022-09-03T02:49:51.463Z,99358.69
2022-09-03T02:52:21.388Z,99354.91
2022-09-03T02:54:51.393Z,99356.78
2022-09-03T02:57:27.305Z,99359.47
2022-09-03T02:59:57.723Z,99360.97
2022-09-03T03:02:29.057Z,99372.03
2022-09-03T03:04:59.074Z,99370.97
2022-09-03T03:07:29.472Z,99365.34
2022-09-03T03:09:59.900Z,99371.16
2022-09-03T03:12:31.336Z,99368.06
2022-09-03T03:15:03.012Z,99363.88
2022-09-03T03:17:35.558Z,99365.72
2022-09-03T03:20:05.933Z,99358.63
2022-09-03T03:22:35.894Z,99356.31
2022-09-03T03:25:06.641Z,99362.78
2022-09-03T03:27:42.402Z,99359.69
2022-09-03T03:30:14.607Z,99363.84
2022-09-03T03:32:46.120Z,99368.03
2022-09-03T03:35:16.440Z,99360.06
2022-09-03T03:37:46.402Z,99363.63
2022-09-03T03:40:16.775Z,99363.59
2022-09-03T03:42:46.827Z,99366.31
2022-09-03T03:45:16.919Z,99362.41
2022-09-03T03:47:48.470Z,99356.78
2022-09-03T03:50:18.466Z,99367.59
2022-09-03T03:52:48.839Z,99366.09
2022-09-03T03:55:18.716Z,99367.34
2022-09-03T03:57:48.707Z,99371.13
2022-09-03T04:00:18.876Z,99368.81
2022-09-03T04:02:50.678Z,99370.81
2022-09-03T04:05:23.198Z,99372.91
2022-09-03T04:07:53.900Z,99368.75
2022-09-03T04:10:25.085Z,99366.63
2022-09-03T04:12:56.378Z,99368.56
2022-09-03T04:15:28.545Z,99367.72
2022-09-03T04:18:00.665Z,99367.94
2022-09-03T04:20:30.983Z,99375.88
2022-09-03T04:23:02.244Z,99383.59
2022-09-03T04:25:32.622Z,99374.22
2022-09-03T04:28:03.919Z,99375.28
2022-09-03T04:30:34.066Z,99384.66
2022-09-03T04:33:05.604Z,99387.78
2022-09-03T04:35:35.969Z,99397.38
2022-09-03T04:38:07.556Z,99393.66
2022-09-03T04:40:37.490Z,99393.66
2022-09-03T04:43:08.579Z,99394.72
2022-09-03T04:45:38.687Z,99399.06
2022-09-03T04:48:12.023Z,99391.34
2022-09-03T04:50:42.115Z,99396.81
2022-09-03T04:53:12.334Z,99398.28
2022-09-03T04:55:43.392Z,99408.06
2022-09-03T04:58:13.574Z,99398.47
2022-09-03T05:00:43.594Z,99401.84
2022-09-03T05:03:15.063Z,99399.34
2022-09-03T05:05:52.628Z,99399.78
2022-09-03T05:08:23.283Z,99391.84
2022-09-03T05:11:00.155Z,99406.63
2022-09-03T05:13:30.259Z,99406.06
2022-09-03T05:16:02.243Z,99416.53
2022-09-03T05:18:35.841Z,99413.19
2022-09-03T05:21:07.750Z,99413.22
2022-09-03T05:23:39.277Z,99416.97
2022-09-03T05:26:11.589Z,99419.06
2022-09-03T05:28:43.504Z,99421.78
2022-09-03T05:31:15.205Z,99410.09
2022-09-03T05:33:48.502Z,99424.91
2022-09-03T05:36:20.392Z,99423.44
2022-09-03T05:38:51.291Z,99427.81
2022-09-03T05:41:23.086Z,99435.16
2022-09-03T05:43:56.002Z,99437.84
2022-09-03T05:46:31.912Z,99432.41
2022-09-03T05:49:07.390Z,99442.69
2022-09-03T05:51:39.539Z,99443.28
2022-09-03T05:54:10.354Z,99450.41
2022-09-03T05:56:42.576Z,99447.88
2022-09-03T05:59:13.889Z,99459.38
2022-09-03T06:01:51.660Z,99450.19
2022-09-03T06:04:25.188Z,99459.16
2022-09-03T06:06:55.384Z,99447.47
2022-09-03T06:09:25.380Z,99446.59
2022-09-03T06:11:57.249Z,99451.81
2022-09-03T06:14:27.393Z,99444.72
2022-09-03T06:16:57.380Z,99449.25
2022-09-03T06:19:28.862Z,99451.56
2022-09-03T06:21:58.963Z,99460.72
2022-09-03T06:24:29.806Z,99462.69
2022-09-03T06:26:59.863Z,99468.09
2022-09-03T06:29:29.905Z,99467.00
2022-09-03T06:32:05.086Z,99468.31
2022-09-03T06:34:36.456Z,99472.66
2022-09-03T06:37:06.464Z,99474.13
2022-09-03T06:39:36.568Z,99471.63
2022-09-03T06:42:06.976Z,99483.56
2022-09-03T06:44:37.025Z,99485.03
2022-09-03T06:47:07.166Z,99480.06
2022-09-03T06:49:38.835Z,99446.66
2022-09-03T06:52:09.236Z,99496.78
2022-09-03T06:54:40.794Z,99494.41
2022-09-03T06:57:11.100Z,99489.59
2022-09-03T06:59:41.172Z,99483.75
2022-09-03T07:02:11.478Z,99489.13
2022-09-03T07:04:43.472Z,99489.34
2022-09-03T07:07:14.102Z,99492.47
2022-09-03T07:09:47.706Z,99496.66
2022-09-03T07:12:19.356Z,99513.09
2022-09-03T07:14:51.097Z,99506.75
2022-09-03T07:17:21.262Z,99516.38
2022-09-03T07:19:52.808Z,99518.72
2022-09-03T07:22:22.711Z,99503.81
2022-09-03T07:25:02.048Z,99507.19
2022-09-03T07:27:32.062Z,99505.06
2022-09-03T07:30:03.521Z,99499.72
2022-09-03T07:32:35.015Z,99507.84
2022-09-03T07:35:07.381Z,99509.69
2022-09-03T07:37:38.524Z,99513.41
2022-09-03T07:40:10.046Z,99518.13
2022-09-03T07:42:40.520Z,99511.78
2022-09-03T07:45:12.492Z,99518.13
2022-09-03T07:47:48.713Z,99524.59
2022-09-03T07:50:20.802Z,99519.50
2022-09-03T07:52:51.156Z,99521.53
2022-09-03T07:55:21.289Z,99518.13
2022-09-03T07:57:51.648Z,99497.91
2022-09-03T08:00:21.929Z,99501.78
2022-09-03T08:02:54.199Z,99493.50
2022-09-03T08:05:27.667Z,99493.56
2022-09-03T08:07:58.004Z,99488.16
2022-09-03T08:10:31.397Z,99490.78
2022-09-03T08:13:01.667Z,99496.00
2022-09-03T08:15:31.839Z,99494.16
2022-09-03T08:18:03.413Z,99493.94
2022-09-03T08:20:35.536Z,99491.09
2022-09-03T08:23:05.731Z,99497.59
2022-09-03T08:25:35.788Z,99507.28
2022-09-03T08:28:05.778Z,99502.94
2022-09-03T08:30:36.125Z,99497.72
2022-09-03T08:33:08.551Z,99497.81
2022-09-03T08:35:40.106Z,99496.91
2022-09-03T08:38:10.206Z,99498.75
2022-09-03T08:40:42.784Z,99483.59
2022-09-03T08:43:18.818Z,99485.63
2022-09-03T08:45:49.060Z,99484.63
2022-09-03T08:48:26.074Z,99486.16
2022-09-03T08:51:01.726Z,99489.69
2022-09-03T08:53:42.138Z,99482.69
2022-09-03T08:56:16.124Z,99482.38
2022-09-03T08:58:46.317Z,99478.94
2022-09-03T09:01:27.625Z,99481.69
2022-09-03T09:04:06.905Z,99478.72
2022-09-03T09:06:45.091Z,99484.59
2022-09-03T09:09:29.526Z,99483.91
2022-09-03T09:12:18.046Z,99490.41
2022-09-03T09:15:01.692Z,99490.88
2022-09-03T09:17:47.175Z,99492.47
2022-09-03T09:20:25.316Z,99478.13
2022-09-03T09:23:02.422Z,99480.97
2022-09-03T09:25:33.835Z,99473.22
2022-09-03T09:28:08.062Z,99466.00
2022-09-03T09:30:38.859Z,99480.06
2022-09-03T09:33:08.833Z,99487.41
2022-09-03T09:35:41.906Z,99485.06
2022-09-03T09:38:14.093Z,99478.84
2022-09-03T09:40:47.244Z,99475.75
2022-09-03T09:43:21.108Z,99476.13
2022-09-03T09:45:53.561Z,99460.28
2022-09-03T09:48:31.243Z,99468.28
2022-09-03T09:51:10.309Z,99473.28
2022-09-03T09:53:42.059Z,99474.59
2022-09-03T09:56:22.698Z,99473.91
2022-09-03T09:59:03.678Z,99470.22
2022-09-03T10:01:33.978Z,99476.50
2022-09-03T10:04:11.857Z,99481.72
2022-09-03T10:06:57.293Z,99481.38
2022-09-03T10:09:30.962Z,99481.38
2022-09-03T10:12:14.551Z,99486.97
2022-09-03T10:14:51.353Z,99487.44
2022-09-03T10:17:37.092Z,99487.06
2022-09-03T10:20:30.086Z,99488.25
2022-09-03T10:23:15.309Z,99484.50
2022-09-03T10:25:53.791Z,99475.94
2022-09-03T10:28:26.885Z,99479.72
2022-09-03T10:31:19.216Z,99480.09
2022-09-03T10:33:55.466Z,99480.94
2022-09-03T10:36:30.082Z,99477.81
2022-09-03T10:39:07.081Z,99479.00
2022-09-03T10:41:55.991Z,99466.56
2022-09-03T10:44:43.945Z,99473.69
2022-09-03T10:47:35.375Z,99463.81
2022-09-03T10:50:16.295Z,99470.09
2022-09-03T10:53:07.050Z,99471.75
2022-09-03T10:55:48.166Z,99464.16
2022-09-03T10:58:34.434Z,99450.84
2022-09-03T11:01:11.986Z,99461.88
2022-09-03T11:03:49.137Z,99459.13
2022-09-03T11:06:24.719Z,99455.53
2022-09-03T11:09:05.848Z,99457.69
2022-09-03T11:11:41.795Z,99459.91
2022-09-03T11:14:17.218Z,99450.75
2022-09-03T11:16:53.883Z,99454.06
2022-09-03T11:19:35.273Z,99447.84
2022-09-03T11:22:08.117Z,99456.84
2022-09-03T11:24:41.167Z,99463.97
2022-09-03T11:27:26.327Z,99465.41
2022-09-03T11:30:03.868Z,99469.31
2022-09-03T11:32:55.905Z,99460.50
2022-09-03T11:35:29.082Z,99463.41
2022-09-03T11:38:02.132Z,99456.50
2022-09-03T11:40:35.501Z,99451.28
2022-09-03T11:43:13.042Z,99451.72
2022-09-03T11:45:44.604Z,99461.25
2022-09-03T11:48:36.079Z,99452.00
2022-09-03T11:51:18.956Z,99446.75
2022-09-03T11:53:57.058Z,99441.69
2022-09-03T11:56:28.051Z,99445.00
2022-09-03T11:59:07.250Z,99451.66
2022-09-03T12:01:41.119Z,99456.63
2022-09-03T12:04:17.056Z,99449.50
2022-09-03T12:07:05.748Z,99445.19
2022-09-03T12:09:56.337Z,99437.41
2022-09-03T12:12:40.865Z,99435.50
2022-09-03T12:15:20.052Z,99440.16
2022-09-03T12:18:19.155Z,99428.44
2022-09-03T12:21:01.150Z,99426.47
2022-09-03T12:23:34.351Z,99433.28
2022-09-03T12:26:07.211Z,99424.25
2022-09-03T12:28:41.473Z,99432.06
2022-09-03T12:31:25.413Z,99431.22
2022-09-03T12:34:00.221Z,99424.34
2022-09-03T12:36:38.623Z,99417.75
2022-09-03T12:39:13.247Z,99421.91
2022-09-03T12:41:57.248Z,99411.28
2022-09-03T12:44:29.708Z,99417.13
2022-09-03T12:50:07.248Z,99421.25
2022-09-03T12:52:41.269Z,99413.13
2022-09-03T12:55:27.117Z,99391.97
2022-09-03T12:58:04.539Z,99430.47
2022-09-03T13:00:41.059Z,99428.22
2022-09-03T13:03:17.896Z,99416.44
2022-09-03T13:05:53.605Z,99425.72
2022-09-03T13:08:27.507Z,99414.19
2022-09-03T13:11:00.891Z,99420.25
2022-09-03T13:13:32.636Z,99411.72
2022-09-03T13:16:29.849Z,99418.00
2022-09-03T13:19:07.902Z,99413.28
2022-09-03T13:21:46.120Z,99402.88
2022-09-03T13:24:41.401Z,99415.72
2022-09-03T13:27:23.851Z,99415.69
2022-09-03T13:30:05.997Z,99413.03
2022-09-03T13:32:59.476Z,99420.03
2022-09-03T13:35:36.036Z,99408.66
2022-09-03T13:38:19.759Z,99412.22
2022-09-03T13:40:55.974Z,99412.38
2022-09-03T13:43:33.615Z,99415.47
2022-09-03T13:46:08.619Z,99414.47
2022-09-03T13:48:59.206Z,99427.81
2022-09-03T13:51:32.144Z,99424.56
2022-09-03T13:54:13.178Z,99431.09
2022-09-03T13:56:54.736Z,99433.63
2022-09-03T13:59:35.155Z,99429.50
2022-09-03T14:02:24.269Z,99428.94
2022-09-03T14:05:04.774Z,99431.47
2022-09-03T14:07:54.381Z,99441.34
2022-09-03T14:10:40.440Z,99428.53
2022-09-03T14:13:21.528Z,99439.47
2022-09-03T14:15:59.259Z,99458.28
2022-09-03T14:18:40.386Z,99456.63
2022-09-03T14:21:17.350Z,99454.63
2022-09-03T14:23:54.599Z,99457.84
2022-09-03T14:26:39.217Z,99468.78
2022-09-03T14:29:17.532Z,99448.59
2022-09-03T14:32:24.568Z,99462.03
2022-09-03T14:35:19.420Z,99464.41
2022-09-03T14:38:23.787Z,99462.59
2022-09-03T14:41:06.262Z,99461.09
2022-09-03T14:44:03.080Z,99460.03
2022-09-03T14:46:49.990Z,99460.69
2022-09-03T14:49:37.244Z,99466.88
2022-09-03T14:52:30.372Z,99467.69
2022-09-03T14:55:16.192Z,99469.03
2022-09-03T14:58:04.727Z,99478.16
2022-09-03T15:00:48.133Z,99487.22
2022-09-03T15:03:30.445Z,99500.75
2022-09-03T15:06:10.640Z,99500.97
2022-09-03T15:08:54.830Z,99502.28
2022-09-03T15:11:27.799Z,99510.84
2022-09-03T15:14:10.619Z,99507.75
2022-09-03T15:16:54.793Z,99516.19
2022-09-03T15:19:57.356Z,99517.13
2022-09-03T15:22:39.014Z,99527.06
2022-09-03T15:25:17.523Z,99536.31
2022-09-03T15:28:00.490Z,99540.47
2022-09-03T15:30:36.586Z,99541.59
2022-09-03T15:33:18.549Z,99541.66
2022-09-03T15:36:04.699Z,99543.66
2022-09-03T15:38:46.424Z,99540.28
2022-09-03T15:41:29.514Z,99536.19
2022-09-03T15:44:01.225Z,99536.66
2022-09-03T15:46:46.540Z,99530.81
2022-09-03T15:49:30.349Z,99531.34
2022-09-03T15:52:30.088Z,99538.06
2022-09-03T15:55:08.600Z,99540.69
2022-09-03T15:57:46.639Z,99540.38
2022-09-03T16:00:21.529Z,99532.31
2022-09-03T16:03:00.975Z,99554.72
2022-09-03T16:05:43.444Z,99545.25
2022-09-03T16:08:23.640Z,99550.09
2022-09-03T16:11:04.912Z,99559.31
2022-09-03T16:13:48.872Z,99552.53
2022-09-03T16:16:22.946Z,99547.53
2022-09-03T16:19:04.491Z,99556.66
2022-09-03T16:21:45.468Z,99560.53
2022-09-03T16:24:22.391Z,99513.34
2022-09-03T16:26:57.787Z,99542.91
2022-09-03T16:29:31.107Z,99564.91
2022-09-03T16:32:19.541Z,99565.22
2022-09-03T16:35:04.523Z,99577.50
2022-09-03T16:37:46.000Z,99580.06
2022-09-03T16:40:26.474Z,99578.84
2022-09-03T16:43:23.567Z,99577.75
2022-09-03T16:46:08.390Z,99582.03
2022-09-03T16:48:50.317Z,99589.84
2022-09-03T16:51:30.004Z,99598.16
2022-09-03T16:54:14.818Z,99605.94
2022-09-03T16:56:55.650Z,99612.88
2022-09-03T16:59:44.621Z,99604.13
2022-09-03T17:02:42.207Z,99614.34
2022-09-03T17:05:30.955Z,99613.97
2022-09-03T17:08:17.011Z,99627.53
2022-09-03T17:10:55.669Z,99618.56
2022-09-03T17:13:55.084Z,99634.88
2022-09-03T17:16:39.645Z,99634.47
2022-09-03T17:19:15.711Z,99648.47
2022-09-03T17:21:54.284Z,99658.72
2022-09-03T17:24:47.878Z,99658.78
2022-09-03T17:27:41.602Z,99660.91
2022-09-03T17:30:34.243Z,99659.22
2022-09-03T17:33:36.356Z,99665.50
2022-09-03T17:36:14.128Z,99671.38
2022-09-03T17:39:18.147Z,99676.22
2022-09-03T17:41:54.064Z,99688.09
2022-09-03T17:44:44.534Z,99687.88
2022-09-03T17:47:35.672Z,99698.38
2022-09-03T17:50:15.996Z,99695.69
2022-09-03T17:52:49.712Z,99714.09
2022-09-03T17:55:31.917Z,99706.31
2022-09-03T17:58:14.075Z,99707.78
2022-09-03T18:00:53.568Z,99701.97
2022-09-03T18:03:28.573Z,99709.94
2022-09-03T18:06:04.358Z,99715.38
2022-09-03T18:08:44.808Z,99719.78
2022-09-03T18:11:19.843Z,99715.81
2022-09-03T18:13:59.463Z,99717.66
2022-09-03T18:16:33.906Z,99722.06
2022-09-03T18:19:17.961Z,99734.44
2022-09-03T18:22:08.279Z,99734.63
2022-09-03T18:25:02.303Z,99752.41
2022-09-03T18:27:52.267Z,99750.75
2022-09-03T18:30:39.972Z,99747.81
2022-09-03T18:33:29.042Z,99755.34
2022-09-03T18:36:17.885Z,99757.00
2022-09-03T18:39:05.155Z,99756.97
2022-09-03T18:42:15.619Z,99754.47
2022-09-03T18:45:22.184Z,99761.75
2022-09-03T18:48:22.947Z,99758.59
2022-09-03T18:51:22.129Z,99768.00
2022-09-03T18:54:25.987Z,99770.31
2022-09-03T18:57:13.791Z,99772.63
2022-09-03T19:00:20.152Z,99771.97
2022-09-03T19:03:24.130Z,99770.97
2022-09-03T19:06:24.395Z,99769.66
2022-09-03T19:09:21.917Z,99760.66
2022-09-03T19:12:22.872Z,99762.16
2022-09-03T19:15:18.219Z,99765.06
2022-09-03T19:18:38.343Z,99767.97
2022-09-03T19:21:38.355Z,99762.94
2022-09-03T19:24:27.689Z,99779.84
2022-09-03T19:27:52.917Z,99776.53
2022-09-03T19:30:42.806Z,99768.19
2022-09-03T19:33:45.177Z,99791.16
2022-09-03T19:36:43.719Z,99799.63
2022-09-03T19:39:47.773Z,99802.97
2022-09-03T19:42:44.664Z,99806.72
2022-09-03T19:45:42.023Z,99807.78
2022-09-03T19:48:38.441Z,99746.53
2022-09-03T19:51:33.207Z,99816.06
2022-09-03T19:54:24.652Z,99815.53
2022-09-03T19:57:15.455Z,99810.09
2022-09-03T20:00:06.536Z,99817.38
2022-09-03T20:02:54.528Z,99825.13
2022-09-03T20:05:42.809Z,99794.09
2022-09-03T20:08:34.259Z,99813.66
2022-09-03T20:11:07.126Z,99816.75
2022-09-03T20:13:54.813Z,99817.56
2022-09-03T20:16:31.192Z,99814.84
2022-09-03T20:19:08.117Z,99826.13
2022-09-03T20:21:44.594Z,99829.63
2022-09-03T20:24:28.447Z,99827.50
2022-09-03T20:27:05.171Z,99827.94
2022-09-03T20:29:55.814Z,99834.28
2022-09-03T20:32:45.393Z,99836.59
2022-09-03T20:35:23.706Z,99777.19
2022-09-03T20:38:03.010Z,99847.28
2022-09-03T20:40:45.863Z,99856.91
2022-09-03T20:44:00.206Z,99854.97
2022-09-03T20:46:47.780Z,99853.88
2022-09-03T20:49:31.354Z,99860.19
2022-09-03T20:52:07.366Z,99861.91
2022-09-03T20:54:39.449Z,99864.00
2022-09-03T20:57:22.268Z,99863.81
2022-09-03T21:00:05.675Z,99867.34
2022-09-03T21:02:51.559Z,99870.06
2022-09-03T21:05:27.815Z,99867.53
2022-09-03T21:08:09.017Z,99870.03
2022-09-03T21:10:49.175Z,99866.50
2022-09-03T21:13:32.788Z,99867.16
2022-09-03T21:16:24.345Z,99879.84
2022-09-03T21:19:04.654Z,99875.31
2022-09-03T21:21:48.253Z,99888.00
2022-09-03T21:24:22.729Z,99882.84
2022-09-03T21:27:08.346Z,99878.34
2022-09-03T21:29:44.397Z,99883.84
2022-09-03T21:32:20.004Z,99872.97
2022-09-03T21:34:57.771Z,99892.47
2022-09-03T21:37:28.263Z,99895.19
2022-09-03T21:39:59.485Z,99886.69
2022-09-03T21:42:36.567Z,99894.22
2022-09-03T21:45:12.423Z,99878.50
2022-09-03T21:47:46.134Z,99897.50
2022-09-03T21:50:19.465Z,99896.28
2022-09-03T21:52:55.447Z,99890.13
2022-09-03T21:55:43.115Z,99908.84
2022-09-03T21:58:24.010Z,99912.81
2022-09-03T22:01:02.224Z,99906.13
2022-09-03T22:03:32.211Z,99908.91
2022-09-03T22:06:10.728Z,99902.84
2022-09-03T22:08:47.401Z,99900.16
2022-09-03T22:11:24.212Z,99890.00
2022-09-03T22:14:05.144Z,99879.72
2022-09-03T22:16:40.283Z,99880.31
2022-09-03T22:19:11.002Z,99886.75
2022-09-03T22:21:59.899Z,99886.31
2022-09-03T22:24:40.623Z,99890.31
2022-09-03T22:27:18.368Z,99885.00
2022-09-03T22:29:58.772Z,99883.03
2022-09-03T22:32:36.506Z,99883.78
2022-09-03T22:35:28.437Z,99889.03
2022-09-03T22:38:14.159Z,99879.31
2022-09-03T22:40:52.333Z,99887.66
2022-09-03T22:43:37.911Z,99882.00
2022-09-03T22:46:13.693Z,99870.09
2022-09-03T22:49:02.719Z,99863.63
2022-09-03T22:51:47.812Z,99872.03
2022-09-03T22:56:59.326Z,99872.38
2022-09-03T22:59:34.493Z,99868.56
2022-09-03T23:02:11.708Z,99879.28
2022-09-03T23:04:50.518Z,99872.97
2022-09-03T23:07:26.765Z,99874.81
2022-09-03T23:10:03.635Z,99873.34
2022-09-03T23:12:40.210Z,99867.72
2022-09-03T23:15:14.443Z,99876.06
2022-09-03T23:17:48.391Z,99868.41
2022-09-03T23:20:21.477Z,99873.66
2022-09-03T23:22:59.552Z,99866.53
2022-09-03T23:25:36.921Z,99865.22
2022-09-03T23:28:12.124Z,99862.25
2022-09-03T23:30:42.379Z,99853.84
2022-09-03T23:33:12.813Z,99842.88
2022-09-03T23:35:49.782Z,99854.00
2022-09-03T23:38:26.916Z,99855.88
2022-09-03T23:41:04.668Z,99873.38
2022-09-03T23:44:04.162Z,99867.38
2022-09-03T23:46:41.199Z,99873.72
2022-09-03T23:49:29.003Z,99872.50
2022-09-03T23:52:24.200Z,99875.16
2022-09-03T23:55:04.593Z,99876.00
2022-09-03T23:57:40.337Z,99855.88
